Time;durP1;ratioP1;P1;durP2;ratioP2;P2;SDS_P1;SDS_P2;PMS_P1;PMS_P2;Temp;Humidity;BMP_temperature;BMP_pressure;BME280_temperature;BME280_humidity;BME280_pressure;Samples;Min_cycle;Max_cycle;Signal;HPM_P1;HPM_P2
2023/07/07 00:02:07;;;;;;;4.90;2.83;;;;;;;19.82;100.00;98872.31;4485028;31;20131;-66
2023/07/07 00:04:35;;;;;;;4.00;2.53;;;;;;;19.88;100.00;98862.75;4484663;32;20492;-66
2023/07/07 00:07:04;;;;;;;4.03;2.53;;;;;;;19.83;100.00;98875.78;4484811;31;20119;-66
2023/07/07 00:09:32;;;;;;;4.62;2.62;;;;;;;19.78;100.00;98871.06;4483312;32;20108;-66
2023/07/07 00:12:00;;;;;;;4.25;2.72;;;;;;;19.75;100.00;98868.75;4484727;31;20439;-67
2023/07/07 00:14:28;;;;;;;4.72;2.67;;;;;;;19.73;100.00;98870.78;4484512;32;20100;-67
2023/07/07 00:17:01;;;;;;;3.58;2.58;;;;;;;19.73;100.00;98870.78;4485034;31;20140;-66
2023/07/07 00:19:32;;;;;;;3.92;2.80;;;;;;;19.73;100.00;98878.75;4484886;32;20088;-66
2023/07/07 00:22:01;;;;;;;4.72;2.60;;;;;;;19.72;100.00;98878.97;4484790;31;20088;-67
2023/07/07 00:24:29;;;;;;;4.68;2.75;;;;;;;19.49;100.00;98880.00;4484552;32;20076;-66
2023/07/07 00:26:57;;;;;;;5.10;3.03;;;;;;;19.44;100.00;98869.97;4484469;31;20092;-67
2023/07/07 00:29:24;;;;;;;5.07;2.90;;;;;;;19.40;100.00;98875.84;4484710;31;20205;-67
2023/07/07 00:31:52;;;;;;;5.30;2.95;;;;;;;19.42;100.00;98871.16;4484477;31;20100;-66
2023/07/07 00:34:20;;;;;;;5.65;2.80;;;;;;;19.36;100.00;98878.06;4484636;32;20152;-67
2023/07/07 00:36:47;;;;;;;5.57;2.70;;;;;;;19.39;100.00;98876.84;4484278;31;20100;-66
2023/07/07 00:39:15;;;;;;;4.35;3.10;;;;;;;19.41;100.00;98874.81;4484150;32;20100;-66
2023/07/07 00:41:43;;;;;;;3.87;2.50;;;;;;;19.37;100.00;98881.56;4484295;32;20096;-66
2023/07/07 00:44:11;;;;;;;5.25;3.22;;;;;;;19.38;100.00;98876.03;4484175;32;20651;-67
2023/07/07 00:46:39;;;;;;;6.80;2.70;;;;;;;19.37;100.00;98876.25;4484154;31;20124;-66
2023/07/07 00:49:14;;;;;;;4.10;2.70;;;;;;;19.39;100.00;98879.50;4484107;31;20096;-66
2023/07/07 00:51:58;;;;;;;9.32;3.03;;;;;;;19.25;100.00;98882.06;4473896;32;20104;-66
2023/07/07 00:54:31;;;;;;;6.75;3.28;;;;;;;19.22;100.00;98884.28;4467461;32;20092;-67
2023/07/07 00:57:00;;;;;;;4.87;2.95;;;;;;;19.22;100.00;98882.44;4467372;32;20113;-66
2023/07/07 00:59:38;;;;;;;6.87;2.83;;;;;;;19.19;100.00;98882.81;4468452;32;20104;-66
2023/07/07 01:02:13;;;;;;;6.05;2.83;;;;;;;19.19;100.00;98882.81;4467130;32;20122;-66
2023/07/07 01:04:48;;;;;;;4.50;2.95;;;;;;;19.15;100.00;98877.06;4467211;32;20103;-67
2023/07/07 01:07:20;;;;;;;6.10;2.70;;;;;;;19.15;100.00;98882.38;4468324;32;20150;-66
2023/07/07 01:09:48;;;;;;;4.35;2.67;;;;;;;19.13;100.00;98886.22;4470100;32;20564;-66
2023/07/07 01:12:16;;;;;;;6.70;3.00;;;;;;;19.09;100.00;98890.25;4470395;32;20100;-67
2023/07/07 01:14:45;;;;;;;5.45;2.55;;;;;;;19.05;100.00;98881.06;4483713;32;20152;-67
2023/07/07 01:17:45;;;;;;;5.43;2.92;;;;;;;18.97;100.00;98880.16;4484626;32;20180;-66
2023/07/07 01:20:31;;;;;;;4.20;2.45;;;;;;;18.97;100.00;98882.81;4484721;32;20108;-66
2023/07/07 01:23:20;;;;;;;8.85;3.50;;;;;;;18.90;100.00;98884.56;4484904;32;20088;-66
2023/07/07 01:26:15;;;;;;;4.55;2.95;;;;;;;18.91;100.00;98888.03;4485964;32;20166;-66
2023/07/07 01:29:03;;;;;;;4.40;2.72;;;;;;;18.90;100.00;98889.88;4486152;31;20479;-66
2023/07/07 01:31:56;;;;;;;3.80;2.42;;;;;;;18.92;100.00;98887.84;4486185;31;20092;-66
2023/07/07 01:34:24;;;;;;;4.70;2.80;;;;;;;18.88;100.00;98883.94;4484721;32;20164;-66
2023/07/07 01:36:52;;;;;;;3.55;2.35;;;;;;;18.86;100.00;98887.78;4485936;31;20089;-67
2023/07/07 01:39:23;;;;;;;7.72;2.72;;;;;;;18.85;100.00;98886.97;4485982;31;20115;-66
2023/07/07 01:41:52;;;;;;;8.50;2.65;;;;;;;18.78;100.00;98883.38;4485106;32;20123;-66
2023/07/07 01:44:56;;;;;;;5.53;3.17;;;;;;;18.73;100.00;98888.44;4485780;32;20594;-67
2023/07/07 01:47:29;;;;;;;3.37;2.50;;;;;;;18.71;100.00;98885.97;4423905;32;20128;-67
2023/07/07 01:50:00;;;;;;;4.95;3.10;;;;;;;18.66;100.00;98887.53;4423960;32;20144;-66
2023/07/07 01:52:36;;;;;;;5.13;3.37;;;;;;;18.53;100.00;98889.03;4424135;32;20175;-66
2023/07/07 01:55:08;;;;;;;9.07;3.30;;;;;;;18.48;100.00;98887.94;4424180;32;20880;-66
2023/07/07 01:57:37;;;;;;;4.90;3.17;;;;;;;18.44;100.00;98890.16;4436688;32;20451;-66
2023/07/07 02:00:05;;;;;;;4.53;2.72;;;;;;;18.41;100.00;98891.34;4424068;32;21017;-67
2023/07/07 02:02:43;;;;;;;6.82;3.20;;;;;;;18.46;100.00;98889.97;4425090;32;20172;-67
2023/07/07 02:05:12;;;;;;;4.87;2.95;;;;;;;18.43;100.00;98893.81;4436517;32;20085;-66
2023/07/07 02:07:42;;;;;;;7.75;3.03;;;;;;;18.42;100.00;98887.66;4436599;32;20086;-66
2023/07/07 02:10:10;;;;;;;5.97;2.83;;;;;;;18.44;100.00;98887.50;4436382;32;20121;-67
2023/07/07 02:12:38;;;;;;;5.80;2.60;;;;;;;18.46;100.00;98888.13;4436560;32;20557;-66
2023/07/07 02:15:06;;;;;;;4.30;2.85;;;;;;;18.46;100.00;98888.13;4436388;32;20155;-66
2023/07/07 02:17:33;;;;;;;5.25;2.95;;;;;;;18.46;100.00;98885.47;4436354;32;20583;-66
2023/07/07 02:20:03;;;;;;;6.43;2.83;;;;;;;18.45;100.00;98881.16;4435532;32;20129;-66
2023/07/07 02:22:32;;;;;;;7.18;2.97;;;;;;;18.42;100.00;98881.53;4436379;32;20869;-66
2023/07/07 02:25:00;;;;;;;4.53;2.50;;;;;;;18.38;100.00;98877.59;4485550;31;20115;-66
2023/07/07 02:27:29;;;;;;;7.65;2.70;;;;;;;18.29;100.00;98884.00;4484467;32;20115;-66
2023/07/07 02:29:56;;;;;;;5.85;2.85;;;;;;;18.27;100.00;98876.25;4485357;32;20100;-66
2023/07/07 02:32:25;;;;;;;4.55;2.72;;;;;;;18.27;100.00;98878.88;4485330;32;20088;-66
2023/07/07 02:34:56;;;;;;;3.95;2.50;;;;;;;18.31;100.00;98882.00;4485536;32;20105;-66
2023/07/07 02:37:24;;;;;;;4.50;2.90;;;;;;;18.26;100.00;98879.91;4485475;32;20096;-66
2023/07/07 02:39:54;;;;;;;4.47;2.58;;;;;;;18.32;100.00;98881.00;4485427;31;20130;-66
2023/07/07 02:42:22;;;;;;;4.53;2.70;;;;;;;18.35;100.00;98883.28;4485502;32;20167;-66
2023/07/07 02:44:49;;;;;;;4.60;2.80;;;;;;;18.40;100.00;98894.16;4485279;31;20175;-66
2023/07/07 02:47:17;;;;;;;4.93;2.50;;;;;;;18.37;100.00;98889.22;4485441;31;20152;-66
2023/07/07 02:49:45;;;;;;;4.57;2.50;;;;;;;18.44;100.00;98880.34;4485569;31;20115;-66
2023/07/07 02:52:12;;;;;;;4.10;2.85;;;;;;;18.47;100.00;98892.44;4485501;32;20118;-66
2023/07/07 02:54:39;;;;;;;6.62;2.67;;;;;;;18.48;100.00;98896.72;4485638;31;20123;-67
2023/07/07 02:57:09;;;;;;;6.20;2.90;;;;;;;18.47;100.00;98895.09;4485301;31;20112;-66
2023/07/07 02:59:38;;;;;;;6.65;2.40;;;;;;;18.59;100.00;98901.56;4485335;32;20096;-66
2023/07/07 03:02:06;;;;;;;7.28;2.60;;;;;;;18.59;100.00;98900.72;4485348;31;20091;-66
2023/07/07 03:04:33;;;;;;;4.53;2.17;;;;;;;18.55;100.00;98905.59;4485269;31;20155;-67
2023/07/07 03:07:01;;;;;;;4.60;2.58;;;;;;;18.50;100.00;98902.66;4485546;32;20166;-66
2023/07/07 03:09:28;;;;;;;4.78;2.50;;;;;;;18.54;100.00;98911.06;4485490;31;20151;-66
2023/07/07 03:11:56;;;;;;;4.95;3.20;;;;;;;18.48;100.00;98912.63;4485427;32;20087;-66
2023/07/07 03:14:24;;;;;;;6.18;2.72;;;;;;;18.55;100.00;98918.03;4485184;32;20101;-66
2023/07/07 03:16:51;;;;;;;5.25;2.53;;;;;;;18.42;100.00;98913.38;4485420;32;20104;-66
2023/07/07 03:19:20;;;;;;;4.45;2.78;;;;;;;18.33;100.00;98917.13;4484258;32;20464;-66
2023/07/07 03:21:49;;;;;;;3.70;2.42;;;;;;;18.38;100.00;98917.38;4485051;32;20406;-67
2023/07/07 03:24:18;;;;;;;5.18;2.50;;;;;;;18.44;100.00;98921.97;4471128;32;20139;-66
2023/07/07 03:26:46;;;;;;;3.42;2.30;;;;;;;18.38;100.00;98928.00;4485345;31;20141;-66
2023/07/07 03:29:14;;;;;;;5.68;2.50;;;;;;;18.43;100.00;98925.63;4485376;31;20528;-66
2023/07/07 03:31:42;;;;;;;4.95;2.45;;;;;;;18.42;100.00;98929.28;4485163;31;20100;-66
2023/07/07 03:34:11;;;;;;;4.78;2.97;;;;;;;18.51;100.00;98930.81;4484893;31;20184;-66
2023/07/07 03:36:41;;;;;;;3.87;2.62;;;;;;;18.57;100.00;98935.38;4485353;31;20112;-66
2023/07/07 03:39:08;;;;;;;3.25;2.40;;;;;;;18.51;100.00;98935.31;4485302;31;20176;-66
2023/07/07 03:41:36;;;;;;;5.28;2.60;;;;;;;18.53;100.00;98939.44;4484928;31;20093;-66
2023/07/07 03:44:04;;;;;;;10.50;3.37;;;;;;;18.48;100.00;98938.34;4485300;31;20172;-66
2023/07/07 03:46:32;;;;;;;6.78;2.92;;;;;;;18.36;100.00;98941.44;4485094;32;20080;-67
2023/07/07 03:49:01;;;;;;;6.62;3.00;;;;;;;18.30;100.00;98946.66;4484911;31;20100;-66
2023/07/07 03:51:34;;;;;;;4.32;2.85;;;;;;;18.18;100.00;98943.63;4484803;31;20161;-66
2023/07/07 03:54:04;;;;;;;6.90;3.40;;;;;;;18.08;100.00;98943.91;4485182;31;20080;-66
2023/07/07 03:56:32;;;;;;;5.72;3.20;;;;;;;18.05;100.00;98947.75;4485103;31;20514;-66
2023/07/07 03:59:00;;;;;;;5.28;3.30;;;;;;;18.06;100.00;98956.50;4484792;31;20168;-66
2023/07/07 04:01:27;;;;;;;4.78;3.00;;;;;;;17.96;100.00;98958.63;4483759;32;20100;-68
2023/07/07 04:03:56;;;;;;;6.87;3.33;;;;;;;18.09;100.00;98961.44;4484476;31;20559;-67
2023/07/07 04:06:26;;;;;;;8.50;3.30;;;;;;;18.32;100.00;98955.25;4484802;31;20080;-67
2023/07/07 04:08:55;;;;;;;7.35;3.55;;;;;;;18.42;100.00;98956.63;4485116;31;20104;-67
2023/07/07 04:11:24;;;;;;;4.10;3.10;;;;;;;18.47;100.00;98958.75;4484566;31;20098;-67
2023/07/07 04:13:52;;;;;;;4.72;3.00;;;;;;;18.51;100.00;98962.66;4484685;31;20101;-67
2023/07/07 04:16:22;;;;;;;5.30;3.40;;;;;;;18.68;100.00;98957.16;4484587;32;20092;-67
2023/07/07 04:18:52;;;;;;;5.43;3.30;;;;;;;18.77;100.00;98964.00;4484624;31;20088;-67
2023/07/07 04:21:23;;;;;;;6.87;2.78;;;;;;;18.87;100.00;98961.94;4484588;31;20112;-67
2023/07/07 04:23:53;;;;;;;8.60;2.90;;;;;;;18.87;100.00;98964.59;4484552;32;20080;-67
2023/07/07 04:26:21;;;;;;;5.00;2.53;;;;;;;19.03;100.00;98974.19;4484695;32;20426;-68
2023/07/07 04:28:51;;;;;;;4.93;3.00;;;;;;;19.04;100.00;98972.34;4484350;32;20107;-67
2023/07/07 04:31:21;;;;;;;7.37;3.33;;;;;;;19.13;100.00;98976.53;4484686;31;20135;-67
2023/07/07 04:33:49;;;;;;;8.68;2.90;;;;;;;19.21;100.00;98979.03;4484454;32;20084;-67
2023/07/07 04:36:17;;;;;;;3.97;2.83;;;;;;;19.11;100.00;98991.81;4484569;31;20457;-67
2023/07/07 04:38:48;;;;;;;3.87;2.67;;;;;;;19.17;100.00;98985.75;4484145;31;20131;-65
2023/07/07 04:41:22;;;;;;;4.05;2.58;;;;;;;19.10;100.00;98990.16;4484338;31;20477;-65
2023/07/07 04:43:54;;;;;;;6.25;3.10;;;;;;;19.19;100.00;98985.56;4485254;32;20519;-65
2023/07/07 04:46:30;;;;;;;;;;;;;;;19.20;100.00;98990.69;4486666;31;20133;-66
2023/07/07 04:48:57;;;;;;;;;;;;;;;19.26;100.00;98989.94;4486520;32;19976;-65
2023/07/07 04:51:25;;;;;;;5.20;2.80;;;;;;;19.29;100.00;98980.78;4486346;31;20055;-65
2023/07/07 04:53:52;;;;;;;5.25;2.97;;;;;;;19.26;100.00;98981.97;4486287;31;20089;-65
2023/07/07 04:56:21;;;;;;;5.37;2.80;;;;;;;19.24;100.00;98984.00;4486261;32;20088;-65
2023/07/07 04:58:50;;;;;;;4.93;2.95;;;;;;;19.20;100.00;98989.84;4486193;31;20600;-65
2023/07/07 05:01:22;;;;;;;6.68;3.00;;;;;;;19.22;100.00;98982.53;4486167;31;20096;-65
2023/07/07 05:03:55;;;;;;;4.40;2.70;;;;;;;19.38;100.00;98992.94;4485944;31;20137;-65
2023/07/07 05:06:24;;;;;;;10.23;3.60;;;;;;;19.34;100.00;98983.69;4486147;31;20141;-65
2023/07/07 05:08:52;;;;;;;7.10;4.05;;;;;;;19.49;100.00;98992.44;4485989;31;20378;-65
2023/07/07 05:11:22;;;;;;;12.57;3.35;;;;;;;19.52;100.00;98988.56;4486147;31;20100;-65
2023/07/07 05:13:50;;;;;;;8.65;3.95;;;;;;;19.52;100.00;98993.91;4485878;31;20572;-65
2023/07/07 05:16:21;;;;;;;4.28;2.60;;;;;;;19.42;100.00;98985.41;4486140;31;20191;-65
2023/07/07 05:18:49;;;;;;;4.32;2.55;;;;;;;19.40;97.86;98996.22;4485814;32;20096;-65
2023/07/07 05:21:19;;;;;;;7.50;2.80;;;;;;;19.35;98.40;98998.62;4485974;31;20145;-65
2023/07/07 05:23:47;;;;;;;4.68;2.80;;;;;;;19.54;98.39;99001.69;4485949;32;20089;-65
2023/07/07 05:26:15;;;;;;;6.65;3.35;;;;;;;19.73;97.51;99008.16;4484439;32;20141;-65
2023/07/07 05:28:42;;;;;;;6.75;4.07;;;;;;;19.74;96.80;98997.34;4486465;31;20179;-65
2023/07/07 05:31:12;;;;;;;4.57;2.80;;;;;;;19.78;95.70;99006.62;4495738;31;20096;-65
2023/07/07 05:33:40;;;;;;;6.60;2.90;;;;;;;19.72;95.74;99010.03;4500893;31;20115;-65
2023/07/07 05:36:10;;;;;;;5.90;3.22;;;;;;;19.74;96.59;99015.16;4498375;31;20100;-65
2023/07/07 05:38:40;;;;;;;5.95;2.87;;;;;;;19.64;100.00;99018.13;4485908;31;20144;-65
2023/07/07 05:41:09;;;;;;;9.88;2.80;;;;;;;19.62;100.00;99015.66;4486596;31;20508;-65
2023/07/07 05:43:36;;;;;;;4.93;3.08;;;;;;;19.62;100.00;99013.00;4500929;31;20591;-65
2023/07/07 05:46:08;;;;;;;4.75;2.58;;;;;;;19.73;99.06;99016.16;4501548;31;20155;-65
2023/07/07 05:48:36;;;;;;;4.72;2.90;;;;;;;19.85;97.55;99015.50;4473268;31;20096;-65
2023/07/07 05:51:06;;;;;;;7.70;3.00;;;;;;;19.91;95.94;99013.06;4473834;32;20168;-65
2023/07/07 05:53:40;;;;;;;6.82;3.10;;;;;;;20.10;96.20;99017.72;4478056;31;20572;-65
2023/07/07 05:56:17;;;;;;;6.12;2.60;;;;;;;20.06;91.19;99019.16;4478866;31;20616;-65
2023/07/07 05:58:46;;;;;;;6.15;3.03;;;;;;;20.00;88.93;99026.06;4480615;32;20116;-65
2023/07/07 06:01:14;;;;;;;9.75;3.25;;;;;;;20.14;90.88;99029.62;4479174;32;20164;-65
2023/07/07 06:03:43;;;;;;;6.80;3.42;;;;;;;20.36;88.70;99030.44;4481916;31;20101;-65
2023/07/07 06:06:11;;;;;;;5.22;2.62;;;;;;;20.47;86.27;99030.88;4483449;31;20118;-65
2023/07/07 06:08:40;;;;;;;8.05;3.53;;;;;;;20.63;87.48;99027.91;4486060;31;20166;-65
2023/07/07 06:11:08;;;;;;;8.77;3.20;;;;;;;20.91;87.69;99029.75;4485096;31;20119;-65
2023/07/07 06:13:37;;;;;;;6.72;3.15;;;;;;;21.01;80.05;99038.16;4481843;31;20524;-65
2023/07/07 06:16:05;;;;;;;8.77;3.05;;;;;;;21.40;76.58;99035.88;4470374;31;20400;-65
2023/07/07 06:18:34;;;;;;;4.30;2.72;;;;;;;21.81;73.39;99045.63;4479583;31;20165;-66
2023/07/07 06:21:01;;;;;;;5.40;2.83;;;;;;;22.20;72.13;99043.19;4479468;31;20109;-65
2023/07/07 06:23:30;;;;;;;5.55;3.03;;;;;;;22.61;71.53;99050.16;4477361;32;20435;-65
2023/07/07 06:25:58;;;;;;;5.05;2.37;;;;;;;22.94;68.23;99054.59;4480221;31;20088;-65
2023/07/07 06:28:27;;;;;;;4.85;2.60;;;;;;;23.10;66.81;99056.78;4482971;31;20100;-65
2023/07/07 06:30:54;;;;;;;6.18;3.08;;;;;;;22.76;63.66;99058.72;4479136;32;20092;-65
2023/07/07 06:33:22;;;;;;;10.35;2.55;;;;;;;22.70;64.47;99061.44;4479060;32;20089;-65
2023/07/07 06:35:50;;;;;;;5.03;2.75;;;;;;;22.65;63.08;99067.38;4473985;31;20100;-65
2023/07/07 06:38:18;;;;;;;5.03;2.60;;;;;;;22.65;65.00;99067.38;4480461;31;20096;-65
2023/07/07 06:40:47;;;;;;;4.20;2.55;;;;;;;22.59;64.74;99063.69;4479006;31;20431;-65
2023/07/07 06:43:18;;;;;;;5.40;2.75;;;;;;;22.39;62.84;99071.75;4481999;31;20171;-65
2023/07/07 06:45:51;;;;;;;6.20;3.03;;;;;;;22.58;60.19;99066.59;4482932;31;20084;-65
2023/07/07 06:48:18;;;;;;;4.72;2.90;;;;;;;22.53;61.93;99069.88;4479815;31;20596;-65
2023/07/07 06:50:46;;;;;;;5.78;3.03;;;;;;;23.01;62.49;99068.72;4482201;31;20126;-66
2023/07/07 06:53:14;;;;;;;7.65;3.05;;;;;;;23.39;61.55;99068.81;4481221;31;20105;-66
2023/07/07 06:55:43;;;;;;;11.25;3.50;;;;;;;23.80;60.65;99068.56;4481934;31;20142;-66
2023/07/07 06:58:12;;;;;;;5.30;2.90;;;;;;;23.66;58.74;99074.00;4482443;31;20476;-66
2023/07/07 07:00:41;;;;;;;4.93;2.60;;;;;;;23.48;59.61;99072.06;4479227;31;20104;-66
2023/07/07 07:03:09;;;;;;;5.87;3.22;;;;;;;23.78;62.18;99068.78;4478143;32;20101;-65
2023/07/07 07:05:37;;;;;;;5.78;2.83;;;;;;;23.95;58.10;99076.34;4482411;31;20097;-66
2023/07/07 07:08:06;;;;;;;3.42;2.15;;;;;;;23.84;60.41;99075.12;4481144;31;20417;-66
2023/07/07 07:10:34;;;;;;;5.00;3.00;;;;;;;23.92;61.88;99073.06;4480922;31;20084;-66
2023/07/07 07:13:01;;;;;;;4.40;2.75;;;;;;;24.06;60.06;99079.13;4476773;31;20096;-66
2023/07/07 07:15:30;;;;;;;5.03;2.95;;;;;;;23.80;61.13;99080.13;4471384;31;20104;-66
2023/07/07 07:17:57;;;;;;;7.07;2.90;;;;;;;23.95;60.09;99076.34;4477137;31;20434;-66
2023/07/07 07:20:27;;;;;;;4.43;2.80;;;;;;;23.81;61.81;99087.09;4474918;32;20130;-66
2023/07/07 07:22:54;;;;;;;4.03;2.53;;;;;;;23.90;61.92;99085.81;4478472;31;20101;-66
2023/07/07 07:25:22;;;;;;;4.47;2.75;;;;;;;24.09;62.38;99089.41;4477136;31;20530;-66
2023/07/07 07:27:50;;;;;;;5.50;2.83;;;;;;;24.16;60.42;99089.34;4476693;31;20743;-66
2023/07/07 07:30:18;;;;;;;4.72;2.95;;;;;;;24.15;62.23;99092.22;4474290;31;20607;-66
2023/07/07 07:32:45;;;;;;;6.05;2.87;;;;;;;23.95;62.53;99093.19;4476811;31;20088;-66
2023/07/07 07:35:13;;;;;;;8.77;2.90;;;;;;;24.12;62.62;99093.50;4476074;31;20115;-66
2023/07/07 07:37:41;;;;;;;5.07;3.05;;;;;;;24.14;62.87;99096.78;4475150;32;20116;-66
2023/07/07 07:40:10;;;;;;;11.23;3.30;;;;;;;23.93;62.45;99095.28;4479447;31;20469;-66
2023/07/07 07:42:38;;;;;;;35.83;9.40;;;;;;;24.11;62.14;99101.75;4476490;32;20136;-66
2023/07/07 07:45:07;;;;;;;11.45;5.32;;;;;;;24.25;62.95;99101.44;4478727;31;20106;-66
2023/07/07 07:47:34;;;;;;;16.83;5.10;;;;;;;24.60;60.89;99100.97;4481916;31;20749;-66
2023/07/07 07:50:03;;;;;;;11.85;3.15;;;;;;;24.49;60.38;99106.19;4479377;31;20089;-66
2023/07/07 07:52:31;;;;;;;12.57;4.00;;;;;;;24.41;60.67;99107.28;4479146;31;20209;-66
2023/07/07 07:54:58;;;;;;;8.40;3.10;;;;;;;24.42;61.25;99104.38;4473373;31;20087;-66
2023/07/07 07:57:26;;;;;;;7.45;3.10;;;;;;;24.87;60.77;99107.91;4477075;31;20146;-66
2023/07/07 07:59:54;;;;;;;6.55;2.75;;;;;;;25.07;58.88;99118.41;4478793;31;20088;-66
2023/07/07 08:02:22;;;;;;;5.15;2.97;;;;;;;25.25;56.49;99113.03;4478569;31;20470;-65
2023/07/07 08:04:51;;;;;;;8.25;3.80;;;;;;;25.75;56.00;99116.56;4474956;31;20096;-66
2023/07/07 08:07:18;;;;;;;4.22;2.90;;;;;;;26.12;56.88;99116.50;4477189;31;20104;-67
2023/07/07 08:09:45;;;;;;;4.97;3.20;;;;;;;26.30;54.41;99120.94;4478367;31;20140;-66
2023/07/07 08:12:14;;;;;;;7.32;3.67;;;;;;;26.35;57.06;99118.41;4478048;31;20108;-66
2023/07/07 08:14:41;;;;;;;7.62;3.25;;;;;;;26.52;54.29;99126.59;4476429;31;20165;-66
2023/07/07 08:17:11;;;;;;;8.00;3.55;;;;;;;26.32;55.75;99119.66;4477055;31;20359;-66
2023/07/07 08:19:42;;;;;;;6.20;3.00;;;;;;;26.09;53.39;99122.34;4478158;31;20104;-66
2023/07/07 08:22:17;;;;;;;4.62;3.28;;;;;;;25.70;54.87;99119.94;4480123;31;20126;-66
2023/07/07 08:24:48;;;;;;;6.25;3.10;;;;;;;25.77;54.41;99122.53;4479347;32;20482;-67
2023/07/07 08:27:17;;;;;;;6.53;3.20;;;;;;;25.94;53.83;99122.72;4482409;31;20092;-66
2023/07/07 08:29:49;;;;;;;6.30;3.20;;;;;;;26.12;53.97;99128.03;4481592;31;20122;-66
2023/07/07 08:32:22;;;;;;;6.05;3.00;;;;;;;26.35;55.42;99121.88;4480426;31;20159;-66
2023/07/07 08:34:51;;;;;;;5.33;2.80;;;;;;;26.70;54.65;99123.00;4480820;31;20100;-67
2023/07/07 08:37:24;;;;;;;5.25;3.10;;;;;;;26.28;51.96;99128.41;4479083;31;20100;-67
2023/07/07 08:39:52;;;;;;;9.18;3.22;;;;;;;26.14;52.73;99130.50;4480262;32;20147;-66
2023/07/07 08:42:23;;;;;;;6.55;3.15;;;;;;;25.98;53.10;99127.44;4479738;31;20144;-66
2023/07/07 08:44:52;;;;;;;6.47;3.22;;;;;;;25.80;53.29;99125.59;4478272;31;20100;-67
2023/07/07 08:47:48;;;;;;;6.47;3.37;;;;;;;26.13;52.51;99134.22;4477245;31;20112;-67
2023/07/07 08:50:44;;;;;;;5.68;3.08;;;;;;;26.49;53.71;99133.22;4476676;32;20108;-66
2023/07/07 08:53:33;;;;;;;11.82;3.03;;;;;;;26.96;51.27;99137.00;4479301;31;20513;-66
2023/07/07 08:56:14;;;;;;;5.40;3.00;;;;;;;27.05;49.27;99136.41;4478118;31;20490;-67
2023/07/07 08:58:53;;;;;;;3.92;2.53;;;;;;;27.55;50.18;99144.97;4480592;31;20679;-67
2023/07/07 09:01:48;;;;;;;5.60;2.80;;;;;;;27.56;46.69;99146.63;4480488;31;20107;-66
2023/07/07 09:04:39;;;;;;;4.05;3.05;;;;;;;27.59;46.63;99151.53;4480111;31;20560;-67
2023/07/07 09:07:31;;;;;;;5.95;3.35;;;;;;;27.43;45.42;99155.78;4479263;31;20084;-67
2023/07/07 09:10:13;;;;;;;6.90;3.33;;;;;;;27.13;46.75;99154.03;4479765;32;20124;-67
2023/07/07 09:12:58;;;;;;;6.37;3.37;;;;;;;27.05;48.62;99147.16;4479271;31;20159;-66
2023/07/07 09:15:28;;;;;;;5.97;3.78;;;;;;;27.10;47.85;99149.13;4473617;31;20092;-67
2023/07/07 09:18:23;;;;;;;5.22;3.50;;;;;;;27.34;47.55;99149.94;4478174;31;20101;-67
2023/07/07 09:20:55;;;;;;;6.62;3.97;;;;;;;27.19;47.60;99155.81;4479913;32;20105;-67
2023/07/07 09:23:29;;;;;;;7.18;3.53;;;;;;;26.93;48.52;99149.03;4481128;31;20112;-67
2023/07/07 09:26:01;;;;;;;4.60;3.15;;;;;;;26.83;48.23;99157.72;4478614;31;20518;-67
2023/07/07 09:28:32;;;;;;;5.43;3.50;;;;;;;26.59;50.17;99154.16;4475962;31;20160;-67
2023/07/07 09:31:08;;;;;;;7.90;3.30;;;;;;;27.05;48.93;99154.41;4478694;32;20100;-66
2023/07/07 09:33:36;;;;;;;5.93;3.47;;;;;;;26.98;48.24;99157.25;4478542;31;20167;-66
2023/07/07 09:36:16;;;;;;;7.35;3.47;;;;;;;27.13;50.81;99153.25;4476970;31;20605;-67
2023/07/07 09:39:07;;;;;;;5.47;3.33;;;;;;;27.58;48.30;99160.66;4476923;31;20111;-67
2023/07/07 09:42:10;;;;;;;7.43;3.28;;;;;;;27.78;47.54;99152.97;4411360;32;20141;-67
2023/07/07 09:45:18;;;;;;;4.40;3.17;;;;;;;27.67;47.41;99158.41;4417424;32;20132;-67
2023/07/07 09:48:21;;;;;;;7.87;3.47;;;;;;;28.16;45.09;99150.69;4331621;33;20115;-66
2023/07/07 09:50:56;;;;;;;5.50;3.17;;;;;;;28.50;44.05;99158.81;4338244;32;20100;-67
2023/07/07 09:53:36;;;;;;;13.40;4.20;;;;;;;29.12;45.36;99157.06;4343924;33;20104;-67
2023/07/07 09:56:28;;;;;;;5.75;3.33;;;;;;;28.83;43.74;99152.59;4344609;33;20126;-67
2023/07/07 09:59:06;;;;;;;6.87;3.62;;;;;;;28.36;43.91;99161.03;4342643;32;20596;-66
2023/07/07 10:01:36;;;;;;;13.85;4.00;;;;;;;28.04;42.99;99153.47;4330837;33;20092;-67
2023/07/07 10:04:12;;;;;;;7.78;3.55;;;;;;;28.06;44.41;99151.34;4319588;33;20202;-67
2023/07/07 10:06:49;;;;;;;7.12;3.50;;;;;;;28.21;45.34;99148.09;4331876;33;20103;-66
2023/07/07 10:09:18;;;;;;;7.47;3.35;;;;;;;28.09;43.86;99152.75;4341535;33;20197;-67
2023/07/07 10:11:48;;;;;;;7.05;3.60;;;;;;;27.56;46.23;99163.59;4341789;33;20204;-66
2023/07/07 10:14:36;;;;;;;7.93;3.83;;;;;;;27.97;45.53;99152.81;4332609;33;20138;-66
2023/07/07 10:17:19;;;;;;;7.12;3.90;;;;;;;28.05;45.10;99160.47;4334972;33;20111;-66
2023/07/07 10:19:53;;;;;;;8.17;3.60;;;;;;;28.70;43.29;99158.34;4387572;32;20124;-66
2023/07/07 10:22:20;;;;;;;9.20;3.67;;;;;;;29.45;44.38;99158.84;4405798;32;20129;-67
2023/07/07 10:24:49;;;;;;;11.05;3.80;;;;;;;29.87;42.55;99158.25;4444603;32;20138;-67
2023/07/07 10:27:19;;;;;;;8.55;3.90;;;;;;;30.31;40.19;99156.50;4486204;31;20178;-67
2023/07/07 10:29:47;;;;;;;8.98;3.65;;;;;;;29.84;37.37;99161.47;4485674;31;20084;-67
2023/07/07 10:32:20;;;;;;;17.60;3.87;;;;;;;29.71;36.79;99156.44;4487883;31;20446;-67
2023/07/07 10:34:52;;;;;;;7.28;3.37;;;;;;;30.09;37.21;99157.38;4471934;31;20122;-67
2023/07/07 10:37:22;;;;;;;;;;;;;;;30.32;38.16;99152.72;4470133;32;20151;-67
2023/07/07 10:39:52;;;;;;;8.00;3.95;;;;;;;30.10;39.99;99153.63;4469594;31;20040;-67
2023/07/07 10:42:23;;;;;;;8.05;3.83;;;;;;;30.37;41.12;99155.44;4484943;31;20164;-67
2023/07/07 10:44:57;;;;;;;7.07;3.87;;;;;;;30.05;36.95;99148.16;4469984;32;20122;-67
2023/07/07 10:47:35;;;;;;;6.82;3.83;;;;;;;29.63;36.59;99144.22;4478229;31;20126;-67
2023/07/07 10:50:09;;;;;;;8.32;4.10;;;;;;;28.70;39.00;99144.84;4484725;31;20485;-67
2023/07/07 10:53:16;;;;;;;6.35;3.80;;;;;;;28.57;38.08;99147.84;4492547;31;20637;-67
2023/07/07 10:56:07;;;;;;;5.87;3.58;;;;;;;28.12;38.34;99139.59;4496167;31;20096;-68
2023/07/07 10:58:47;;;;;;;7.22;3.47;;;;;;;27.90;39.49;99144.03;4494032;31;20092;-67
2023/07/07 11:01:36;;;;;;;5.53;3.47;;;;;;;27.95;39.63;99144.94;4483626;31;20485;-68
2023/07/07 11:04:09;;;;;;;21.30;4.00;;;;;;;28.18;38.28;99147.75;4484029;31;20089;-67
2023/07/07 11:06:36;;;;;;;;;;;;;;;28.22;36.44;99140.84;4485982;31;20123;-67
2023/07/07 11:09:26;;;;;;;6.22;3.62;;;;;;;27.81;36.51;99140.91;4484072;31;19979;-67
2023/07/07 11:12:05;;;;;;;5.90;3.80;;;;;;;27.79;38.42;99141.13;4482283;31;20137;-67
2023/07/07 11:14:58;;;;;;;6.43;3.85;;;;;;;27.79;38.19;99138.44;4482261;31;20107;-67
2023/07/07 11:17:47;;;;;;;8.95;3.28;;;;;;;27.62;38.29;99146.47;4478440;32;20147;-67
2023/07/07 11:20:27;;;;;;;9.20;3.90;;;;;;;28.37;37.61;99143.78;4482438;31;20096;-67
2023/07/07 11:23:14;;;;;;;6.68;3.60;;;;;;;28.64;35.64;99135.88;4481586;31;20461;-67
2023/07/07 11:26:08;;;;;;;11.50;3.62;;;;;;;28.33;35.86;99137.25;4480320;32;20412;-67
2023/07/07 11:28:51;;;;;;;6.65;3.90;;;;;;;28.00;36.80;99129.97;4460748;32;20166;-67
2023/07/07 11:32:12;;;;;;;15.33;4.63;;;;;;;27.67;37.07;99140.37;4448697;32;20140;-67
2023/07/07 11:34:51;;;;;;;6.78;3.70;;;;;;;27.37;38.29;99144.09;4412849;32;20124;-67
2023/07/07 11:37:41;;;;;;;8.38;3.87;;;;;;;27.42;37.34;99140.72;4414789;32;20109;-67
2023/07/07 11:40:33;;;;;;;8.30;3.90;;;;;;;27.93;37.99;99130.91;4415425;32;20121;-67
2023/07/07 11:43:06;;;;;;;6.72;3.80;;;;;;;28.36;37.16;99136.78;4405625;32;20122;-67
2023/07/07 11:46:00;;;;;;;12.48;4.10;;;;;;;28.06;36.22;99135.19;4415911;32;20590;-66
2023/07/07 11:48:43;;;;;;;5.60;3.20;;;;;;;28.31;36.82;99125.88;4357901;32;20095;-67
2023/07/07 11:51:43;;;;;;;12.45;3.10;;;;;;;28.85;35.91;99125.37;4357555;32;20123;-67
2023/07/07 11:54:49;;;;;;;6.40;3.67;;;;;;;28.99;35.93;99123.16;4357272;32;20102;-67
2023/07/07 11:57:49;;;;;;;6.72;3.67;;;;;;;29.37;34.73;99126.88;4286637;33;20160;-67